sensor_id;sensor_type;location;lat;lon;timestamp;P1;durP1;ratioP1;P2;durP2;ratioP2
71759;SDS011;59919;48.112;16.280;2024-03-25T00:00:49;2.45;;;0.40;;
71759;SDS011;59919;48.112;16.280;2024-03-25T00:03:20;0.70;;;0.47;;
71759;SDS011;59919;48.112;16.280;2024-03-25T00:05:52;0.73;;;0.30;;
71759;SDS011;59919;48.112;16.280;2024-03-25T00:08:25;2.55;;;0.60;;
71759;SDS011;59919;48.112;16.280;2024-03-25T00:10:58;1.45;;;0.43;;
71759;SDS011;59919;48.112;16.280;2024-03-25T00:13:31;1.38;;;0.40;;
71759;SDS011;59919;48.112;16.280;2024-03-25T00:16:02;0.60;;;0.30;;
71759;SDS011;59919;48.112;16.280;2024-03-25T00:18:37;0.32;;;0.30;;
71759;SDS011;59919;48.112;16.280;2024-03-25T00:21:10;2.53;;;0.40;;
71759;SDS011;59919;48.112;16.280;2024-03-25T00:23:41;3.40;;;0.40;;
71759;SDS011;59919;48.112;16.280;2024-03-25T00:26:15;0.82;;;0.30;;
71759;SDS011;59919;48.112;16.280;2024-03-25T00:28:46;1.50;;;0.38;;
71759;SDS011;59919;48.112;16.280;2024-03-25T00:31:18;0.65;;;0.30;;
71759;SDS011;59919;48.112;16.280;2024-03-25T00:33:50;0.55;;;0.30;;
71759;SDS011;59919;48.112;16.280;2024-03-25T00:36:24;1.13;;;0.40;;
71759;SDS011;59919;48.112;16.280;2024-03-25T00:38:56;0.32;;;0.30;;
71759;SDS011;59919;48.112;16.280;2024-03-25T00:41:27;1.20;;;0.35;;
71759;SDS011;59919;48.112;16.280;2024-03-25T00:44:00;2.40;;;0.65;;
71759;SDS011;59919;48.112;16.280;2024-03-25T00:46:36;1.40;;;0.43;;
71759;SDS011;59919;48.112;16.280;2024-03-25T00:49:08;0.77;;;0.35;;
71759;SDS011;59919;48.112;16.280;2024-03-25T00:51:40;0.65;;;0.40;;
71759;SDS011;59919;48.112;16.280;2024-03-25T00:54:11;2.72;;;0.20;;
71759;SDS011;59919;48.112;16.280;2024-03-25T00:56:42;3.95;;;1.13;;
71759;SDS011;59919;48.112;16.280;2024-03-25T00:59:17;1.92;;;0.28;;
71759;SDS011;59919;48.112;16.280;2024-03-25T01:01:48;2.17;;;0.60;;
71759;SDS011;59919;48.112;16.280;2024-03-25T01:04:19;1.02;;;0.45;;
71759;SDS011;59919;48.112;16.280;2024-03-25T01:06:50;1.33;;;0.50;;
71759;SDS011;59919;48.112;16.280;2024-03-25T01:09:24;1.15;;;0.43;;
71759;SDS011;59919;48.112;16.280;2024-03-25T01:11:56;2.30;;;0.50;;
71759;SDS011;59919;48.112;16.280;2024-03-25T01:14:29;1.77;;;0.32;;
71759;SDS011;59919;48.112;16.280;2024-03-25T01:17:03;0.75;;;0.30;;
71759;SDS011;59919;48.112;16.280;2024-03-25T01:19:37;1.50;;;0.35;;
71759;SDS011;59919;48.112;16.280;2024-03-25T01:22:08;1.08;;;0.30;;
71759;SDS011;59919;48.112;16.280;2024-03-25T01:24:39;2.75;;;0.40;;
71759;SDS011;59919;48.112;16.280;2024-03-25T01:27:16;0.52;;;0.40;;
71759;SDS011;59919;48.112;16.280;2024-03-25T01:29:47;1.25;;;0.30;;
71759;SDS011;59919;48.112;16.280;2024-03-25T01:32:18;0.68;;;0.35;;
71759;SDS011;59919;48.112;16.280;2024-03-25T01:34:55;2.63;;;0.40;;
71759;SDS011;59919;48.112;16.280;2024-03-25T01:37:26;3.00;;;0.50;;
71759;SDS011;59919;48.112;16.280;2024-03-25T01:39:58;0.22;;;0.22;;
71759;SDS011;59919;48.112;16.280;2024-03-25T01:42:29;0.20;;;0.20;;
71759;SDS011;59919;48.112;16.280;2024-03-25T01:45:00;1.88;;;0.40;;
71759;SDS011;59919;48.112;16.280;2024-03-25T01:47:31;0.73;;;0.22;;
71759;SDS011;59919;48.112;16.280;2024-03-25T01:50:06;2.15;;;0.50;;
71759;SDS011;59919;48.112;16.280;2024-03-25T01:52:41;1.13;;;0.60;;
71759;SDS011;59919;48.112;16.280;2024-03-25T01:55:15;1.77;;;0.28;;
71759;SDS011;59919;48.112;16.280;2024-03-25T01:57:51;0.80;;;0.50;;
71759;SDS011;59919;48.112;16.280;2024-03-25T02:00:27;0.85;;;0.40;;
71759;SDS011;59919;48.112;16.280;2024-03-25T02:03:02;0.52;;;0.28;;
71759;SDS011;59919;48.112;16.280;2024-03-25T02:05:36;0.68;;;0.30;;
71759;SDS011;59919;48.112;16.280;2024-03-25T02:08:07;1.52;;;0.40;;
71759;SDS011;59919;48.112;16.280;2024-03-25T02:10:40;1.05;;;0.20;;
71759;SDS011;59919;48.112;16.280;2024-03-25T02:13:14;1.75;;;0.32;;
71759;SDS011;59919;48.112;16.280;2024-03-25T02:15:48;1.13;;;0.30;;
71759;SDS011;59919;48.112;16.280;2024-03-25T02:18:21;1.05;;;0.28;;
71759;SDS011;59919;48.112;16.280;2024-03-25T02:20:55;0.60;;;0.40;;
71759;SDS011;59919;48.112;16.280;2024-03-25T02:23:26;0.55;;;0.30;;
71759;SDS011;59919;48.112;16.280;2024-03-25T02:26:03;0.50;;;0.32;;
71759;SDS011;59919;48.112;16.280;2024-03-25T02:28:34;1.55;;;0.30;;
71759;SDS011;59919;48.112;16.280;2024-03-25T02:31:05;1.52;;;0.35;;
71759;SDS011;59919;48.112;16.280;2024-03-25T02:33:36;1.45;;;0.25;;
71759;SDS011;59919;48.112;16.280;2024-03-25T02:36:08;0.70;;;0.50;;
71759;SDS011;59919;48.112;16.280;2024-03-25T02:38:40;0.88;;;0.50;;
71759;SDS011;59919;48.112;16.280;2024-03-25T02:41:13;2.05;;;0.43;;
71759;SDS011;59919;48.112;16.280;2024-03-25T02:43:45;0.65;;;0.30;;
71759;SDS011;59919;48.112;16.280;2024-03-25T02:46:16;0.65;;;0.30;;
71759;SDS011;59919;48.112;16.280;2024-03-25T02:48:49;1.02;;;0.38;;
71759;SDS011;59919;48.112;16.280;2024-03-25T02:51:20;0.73;;;0.17;;
71759;SDS011;59919;48.112;16.280;2024-03-25T02:53:56;1.95;;;0.45;;
71759;SDS011;59919;48.112;16.280;2024-03-25T02:56:27;1.00;;;0.30;;
71759;SDS011;59919;48.112;16.280;2024-03-25T02:59:03;0.68;;;0.30;;
71759;SDS011;59919;48.112;16.280;2024-03-25T03:01:53;0.45;;;0.30;;
71759;SDS011;59919;48.112;16.280;2024-03-25T03:04:24;1.25;;;0.73;;
71759;SDS011;59919;48.112;16.280;2024-03-25T03:06:56;1.17;;;0.40;;
71759;SDS011;59919;48.112;16.280;2024-03-25T03:09:27;0.30;;;0.30;;
71759;SDS011;59919;48.112;16.280;2024-03-25T03:11:58;1.33;;;0.30;;
71759;SDS011;59919;48.112;16.280;2024-03-25T03:14:29;2.08;;;0.30;;
71759;SDS011;59919;48.112;16.280;2024-03-25T03:17:00;0.38;;;0.20;;
71759;SDS011;59919;48.112;16.280;2024-03-25T03:19:36;1.10;;;0.30;;
71759;SDS011;59919;48.112;16.280;2024-03-25T03:22:10;1.48;;;0.30;;
71759;SDS011;59919;48.112;16.280;2024-03-25T03:24:41;0.35;;;0.35;;
71759;SDS011;59919;48.112;16.280;2024-03-25T03:27:12;4.20;;;0.30;;
71759;SDS011;59919;48.112;16.280;2024-03-25T03:29:43;0.77;;;0.40;;
71759;SDS011;59919;48.112;16.280;2024-03-25T03:32:19;0.50;;;0.40;;
71759;SDS011;59919;48.112;16.280;2024-03-25T03:34:53;0.40;;;0.30;;
71759;SDS011;59919;48.112;16.280;2024-03-25T03:37:24;0.40;;;0.20;;
71759;SDS011;59919;48.112;16.280;2024-03-25T03:39:57;0.50;;;0.30;;
71759;SDS011;59919;48.112;16.280;2024-03-25T03:42:31;0.93;;;0.30;;
71759;SDS011;59919;48.112;16.280;2024-03-25T03:45:11;0.50;;;0.30;;
71759;SDS011;59919;48.112;16.280;2024-03-25T03:47:47;3.38;;;0.38;;
71759;SDS011;59919;48.112;16.280;2024-03-25T03:50:18;0.32;;;0.30;;
71759;SDS011;59919;48.112;16.280;2024-03-25T03:52:51;0.45;;;0.40;;
71759;SDS011;59919;48.112;16.280;2024-03-25T03:55:28;1.85;;;0.38;;
71759;SDS011;59919;48.112;16.280;2024-03-25T03:58:01;0.73;;;0.40;;
71759;SDS011;59919;48.112;16.280;2024-03-25T04:00:33;0.63;;;0.30;;
71759;SDS011;59919;48.112;16.280;2024-03-25T04:03:05;0.75;;;0.22;;
71759;SDS011;59919;48.112;16.280;2024-03-25T04:05:39;0.50;;;0.30;;
71759;SDS011;59919;48.112;16.280;2024-03-25T04:08:12;0.30;;;0.30;;
71759;SDS011;59919;48.112;16.280;2024-03-25T04:10:49;1.15;;;0.45;;
71759;SDS011;59919;48.112;16.280;2024-03-25T04:13:22;0.68;;;0.32;;
71759;SDS011;59919;48.112;16.280;2024-03-25T04:15:54;0.47;;;0.30;;
71759;SDS011;59919;48.112;16.280;2024-03-25T04:18:32;2.05;;;0.40;;
71759;SDS011;59919;48.112;16.280;2024-03-25T04:21:04;0.47;;;0.30;;
71759;SDS011;59919;48.112;16.280;2024-03-25T04:23:35;1.63;;;0.50;;
71759;SDS011;59919;48.112;16.280;2024-03-25T04:26:08;1.30;;;0.40;;
71759;SDS011;59919;48.112;16.280;2024-03-25T04:28:39;1.13;;;0.40;;
71759;SDS011;59919;48.112;16.280;2024-03-25T04:31:12;2.30;;;0.75;;
71759;SDS011;59919;48.112;16.280;2024-03-25T04:33:44;0.82;;;0.40;;
71759;SDS011;59919;48.112;16.280;2024-03-25T04:36:19;1.17;;;0.40;;
71759;SDS011;59919;48.112;16.280;2024-03-25T04:38:52;0.80;;;0.50;;
71759;SDS011;59919;48.112;16.280;2024-03-25T04:41:23;0.47;;;0.38;;
71759;SDS011;59919;48.112;16.280;2024-03-25T04:43:56;0.57;;;0.40;;
71759;SDS011;59919;48.112;16.280;2024-03-25T04:46:30;1.45;;;0.38;;
71759;SDS011;59919;48.112;16.280;2024-03-25T04:49:04;0.70;;;0.40;;
71759;SDS011;59919;48.112;16.280;2024-03-25T04:51:35;0.90;;;0.40;;
71759;SDS011;59919;48.112;16.280;2024-03-25T04:54:06;5.60;;;0.70;;
71759;SDS011;59919;48.112;16.280;2024-03-25T04:56:37;0.93;;;0.32;;
71759;SDS011;59919;48.112;16.280;2024-03-25T04:59:08;1.35;;;0.40;;
71759;SDS011;59919;48.112;16.280;2024-03-25T05:01:40;0.40;;;0.35;;
71759;SDS011;59919;48.112;16.280;2024-03-25T05:04:12;2.25;;;0.35;;
71759;SDS011;59919;48.112;16.280;2024-03-25T05:06:51;1.77;;;0.55;;
71759;SDS011;59919;48.112;16.280;2024-03-25T05:09:25;7.20;;;0.52;;
71759;SDS011;59919;48.112;16.280;2024-03-25T05:11:56;1.00;;;0.30;;
71759;SDS011;59919;48.112;16.280;2024-03-25T05:14:29;0.73;;;0.30;;
71759;SDS011;59919;48.112;16.280;2024-03-25T05:17:00;5.03;;;0.50;;
71759;SDS011;59919;48.112;16.280;2024-03-25T05:19:32;0.40;;;0.30;;
71759;SDS011;59919;48.112;16.280;2024-03-25T05:22:06;0.40;;;0.38;;
71759;SDS011;59919;48.112;16.280;2024-03-25T05:24:37;0.90;;;0.32;;
71759;SDS011;59919;48.112;16.280;2024-03-25T05:27:08;0.82;;;0.40;;
71759;SDS011;59919;48.112;16.280;2024-03-25T05:29:42;0.68;;;0.35;;
71759;SDS011;59919;48.112;16.280;2024-03-25T05:32:13;0.93;;;0.32;;
71759;SDS011;59919;48.112;16.280;2024-03-25T05:34:44;1.83;;;0.40;;
71759;SDS011;59919;48.112;16.280;2024-03-25T05:37:15;2.15;;;0.45;;
71759;SDS011;59919;48.112;16.280;2024-03-25T05:39:47;2.33;;;0.40;;
71759;SDS011;59919;48.112;16.280;2024-03-25T05:42:18;2.28;;;0.68;;
71759;SDS011;59919;48.112;16.280;2024-03-25T05:44:49;1.95;;;0.43;;
71759;SDS011;59919;48.112;16.280;2024-03-25T05:47:20;0.30;;;0.30;;
71759;SDS011;59919;48.112;16.280;2024-03-25T05:49:53;1.30;;;0.40;;
71759;SDS011;59919;48.112;16.280;2024-03-25T05:52:28;0.68;;;0.40;;
71759;SDS011;59919;48.112;16.280;2024-03-25T05:55:02;0.50;;;0.38;;
71759;SDS011;59919;48.112;16.280;2024-03-25T05:57:34;0.28;;;0.28;;
71759;SDS011;59919;48.112;16.280;2024-03-25T06:00:06;0.90;;;0.40;;
71759;SDS011;59919;48.112;16.280;2024-03-25T06:02:38;1.30;;;0.50;;
71759;SDS011;59919;48.112;16.280;2024-03-25T06:05:11;1.48;;;0.50;;
71759;SDS011;59919;48.112;16.280;2024-03-25T06:07:45;1.02;;;0.50;;
71759;SDS011;59919;48.112;16.280;2024-03-25T06:10:17;0.52;;;0.40;;
71759;SDS011;59919;48.112;16.280;2024-03-25T06:12:48;0.77;;;0.30;;
71759;SDS011;59919;48.112;16.280;2024-03-25T06:15:19;1.50;;;0.60;;
71759;SDS011;59919;48.112;16.280;2024-03-25T06:17:50;2.08;;;0.50;;
71759;SDS011;59919;48.112;16.280;2024-03-25T06:20:21;1.50;;;0.38;;
71759;SDS011;59919;48.112;16.280;2024-03-25T06:22:52;1.83;;;0.50;;
71759;SDS011;59919;48.112;16.280;2024-03-25T06:25:23;1.88;;;0.40;;
71759;SDS011;59919;48.112;16.280;2024-03-25T06:27:54;3.78;;;0.60;;
71759;SDS011;59919;48.112;16.280;2024-03-25T06:30:25;6.43;;;0.93;;
71759;SDS011;59919;48.112;16.280;2024-03-25T06:33:15;3.88;;;0.73;;
71759;SDS011;59919;48.112;16.280;2024-03-25T06:36:04;0.90;;;0.57;;
71759;SDS011;59919;48.112;16.280;2024-03-25T06:38:36;0.85;;;0.50;;
71759;SDS011;59919;48.112;16.280;2024-03-25T06:41:08;1.45;;;0.50;;
71759;SDS011;59919;48.112;16.280;2024-03-25T06:43:39;1.85;;;0.40;;
71759;SDS011;59919;48.112;16.280;2024-03-25T06:46:10;2.58;;;0.55;;
71759;SDS011;59919;48.112;16.280;2024-03-25T06:48:41;1.70;;;0.40;;
71759;SDS011;59919;48.112;16.280;2024-03-25T06:51:12;4.15;;;0.70;;
71759;SDS011;59919;48.112;16.280;2024-03-25T06:53:43;0.60;;;0.40;;
71759;SDS011;59919;48.112;16.280;2024-03-25T06:56:15;1.27;;;0.70;;
71759;SDS011;59919;48.112;16.280;2024-03-25T06:58:46;1.20;;;0.68;;
71759;SDS011;59919;48.112;16.280;2024-03-25T07:01:19;0.98;;;0.50;;
71759;SDS011;59919;48.112;16.280;2024-03-25T07:03:51;2.90;;;0.40;;
71759;SDS011;59919;48.112;16.280;2024-03-25T07:06:26;2.65;;;0.60;;
71759;SDS011;59919;48.112;16.280;2024-03-25T07:08:57;0.93;;;0.50;;
71759;SDS011;59919;48.112;16.280;2024-03-25T07:11:31;0.40;;;0.40;;
71759;SDS011;59919;48.112;16.280;2024-03-25T07:14:04;3.80;;;0.47;;
71759;SDS011;59919;48.112;16.280;2024-03-25T07:16:38;2.72;;;0.70;;
71759;SDS011;59919;48.112;16.280;2024-03-25T07:19:10;2.05;;;0.77;;
71759;SDS011;59919;48.112;16.280;2024-03-25T07:21:41;1.02;;;0.50;;
71759;SDS011;59919;48.112;16.280;2024-03-25T07:24:12;1.63;;;0.57;;
71759;SDS011;59919;48.112;16.280;2024-03-25T07:26:44;4.38;;;0.85;;
71759;SDS011;59919;48.112;16.280;2024-03-25T07:29:17;3.25;;;0.75;;
71759;SDS011;59919;48.112;16.280;2024-03-25T07:31:49;3.38;;;0.80;;
71759;SDS011;59919;48.112;16.280;2024-03-25T07:34:20;19.20;;;1.20;;
71759;SDS011;59919;48.112;16.280;2024-03-25T07:36:51;5.45;;;1.00;;
71759;SDS011;59919;48.112;16.280;2024-03-25T07:39:22;3.53;;;0.70;;
71759;SDS011;59919;48.112;16.280;2024-03-25T07:41:54;8.80;;;0.90;;
71759;SDS011;59919;48.112;16.280;2024-03-25T07:44:25;6.20;;;0.98;;
71759;SDS011;59919;48.112;16.280;2024-03-25T07:46:59;2.10;;;0.73;;
71759;SDS011;59919;48.112;16.280;2024-03-25T07:49:30;5.13;;;1.17;;
71759;SDS011;59919;48.112;16.280;2024-03-25T07:52:04;3.83;;;1.15;;
71759;SDS011;59919;48.112;16.280;2024-03-25T07:54:35;4.68;;;0.88;;
71759;SDS011;59919;48.112;16.280;2024-03-25T07:57:10;4.60;;;1.10;;
71759;SDS011;59919;48.112;16.280;2024-03-25T07:59:41;2.08;;;0.80;;
71759;SDS011;59919;48.112;16.280;2024-03-25T08:02:12;1.77;;;0.90;;
71759;SDS011;59919;48.112;16.280;2024-03-25T08:04:43;4.20;;;1.00;;
71759;SDS011;59919;48.112;16.280;2024-03-25T08:07:17;1.23;;;0.80;;
71759;SDS011;59919;48.112;16.280;2024-03-25T08:09:50;2.20;;;0.77;;
71759;SDS011;59919;48.112;16.280;2024-03-25T08:12:21;1.65;;;0.70;;
71759;SDS011;59919;48.112;16.280;2024-03-25T08:14:52;5.55;;;1.00;;
71759;SDS011;59919;48.112;16.280;2024-03-25T08:17:23;2.40;;;0.88;;
71759;SDS011;59919;48.112;16.280;2024-03-25T08:19:54;2.15;;;0.88;;
71759;SDS011;59919;48.112;16.280;2024-03-25T08:22:28;6.88;;;1.27;;
71759;SDS011;59919;48.112;16.280;2024-03-25T08:25:01;16.85;;;9.65;;
71759;SDS011;59919;48.112;16.280;2024-03-25T08:27:34;15.60;;;9.02;;
71759;SDS011;59919;48.112;16.280;2024-03-25T08:30:08;18.15;;;8.73;;
71759;SDS011;59919;48.112;16.280;2024-03-25T08:32:40;11.63;;;7.47;;
71759;SDS011;59919;48.112;16.280;2024-03-25T08:35:11;13.15;;;7.57;;
71759;SDS011;59919;48.112;16.280;2024-03-25T08:37:43;10.50;;;6.63;;
71759;SDS011;59919;48.112;16.280;2024-03-25T08:40:19;10.95;;;7.10;;
71759;SDS011;59919;48.112;16.280;2024-03-25T08:42:50;8.70;;;5.78;;
71759;SDS011;59919;48.112;16.280;2024-03-25T08:45:22;10.23;;;6.43;;
71759;SDS011;59919;48.112;16.280;2024-03-25T08:47:54;10.13;;;6.43;;
71759;SDS011;59919;48.112;16.280;2024-03-25T08:50:25;11.80;;;7.05;;
71759;SDS011;59919;48.112;16.280;2024-03-25T08:52:56;9.23;;;5.30;;
71759;SDS011;59919;48.112;16.280;2024-03-25T08:55:27;8.07;;;5.22;;
71759;SDS011;59919;48.112;16.280;2024-03-25T08:57:59;10.07;;;5.38;;
71759;SDS011;59919;48.112;16.280;2024-03-25T09:00:30;9.68;;;5.65;;
71759;SDS011;59919;48.112;16.280;2024-03-25T09:03:01;7.68;;;5.10;;
71759;SDS011;59919;48.112;16.280;2024-03-25T09:05:32;7.05;;;5.28;;
71759;SDS011;59919;48.112;16.280;2024-03-25T09:08:09;7.22;;;4.82;;
71759;SDS011;59919;48.112;16.280;2024-03-25T09:10:45;7.32;;;5.13;;
71759;SDS011;59919;48.112;16.280;2024-03-25T09:13:37;4.60;;;4.13;;
71759;SDS011;59919;48.112;16.280;2024-03-25T09:16:11;5.30;;;4.32;;
71759;SDS011;59919;48.112;16.280;2024-03-25T09:18:42;5.53;;;4.43;;
71759;SDS011;59919;48.112;16.280;2024-03-25T09:21:16;6.20;;;4.10;;
71759;SDS011;59919;48.112;16.280;2024-03-25T09:23:47;5.10;;;3.88;;
71759;SDS011;59919;48.112;16.280;2024-03-25T09:26:18;5.88;;;4.25;;
71759;SDS011;59919;48.112;16.280;2024-03-25T09:28:49;5.07;;;4.20;;
71759;SDS011;59919;48.112;16.280;2024-03-25T09:31:22;5.60;;;3.50;;
71759;SDS011;59919;48.112;16.280;2024-03-25T09:33:54;5.30;;;3.80;;
71759;SDS011;59919;48.112;16.280;2024-03-25T09:36:25;6.32;;;3.70;;
71759;SDS011;59919;48.112;16.280;2024-03-25T09:38:58;7.22;;;3.90;;
71759;SDS011;59919;48.112;16.280;2024-03-25T09:41:35;5.72;;;3.63;;
71759;SDS011;59919;48.112;16.280;2024-03-25T09:44:10;6.75;;;3.47;;
71759;SDS011;59919;48.112;16.280;2024-03-25T09:46:41;3.47;;;3.13;;
71759;SDS011;59919;48.112;16.280;2024-03-25T09:49:12;5.05;;;3.63;;
71759;SDS011;59919;48.112;16.280;2024-03-25T09:51:46;9.70;;;3.15;;
71759;SDS011;59919;48.112;16.280;2024-03-25T09:54:17;6.22;;;2.97;;
71759;SDS011;59919;48.112;16.280;2024-03-25T09:56:48;8.27;;;3.60;;
71759;SDS011;59919;48.112;16.280;2024-03-25T09:59:20;5.07;;;2.85;;
71759;SDS011;59919;48.112;16.280;2024-03-25T10:01:51;7.18;;;3.30;;
71759;SDS011;59919;48.112;16.280;2024-03-25T10:04:22;4.45;;;2.75;;
71759;SDS011;59919;48.112;16.280;2024-03-25T10:06:55;6.25;;;3.20;;
71759;SDS011;59919;48.112;16.280;2024-03-25T10:09:26;4.38;;;2.67;;
71759;SDS011;59919;48.112;16.280;2024-03-25T10:11:58;4.75;;;2.50;;
71759;SDS011;59919;48.112;16.280;2024-03-25T10:14:32;4.43;;;2.38;;
71759;SDS011;59919;48.112;16.280;2024-03-25T10:17:05;3.83;;;2.53;;
71759;SDS011;59919;48.112;16.280;2024-03-25T10:19:38;3.78;;;2.38;;
71759;SDS011;59919;48.112;16.280;2024-03-25T10:22:12;3.38;;;2.35;;
71759;SDS011;59919;48.112;16.280;2024-03-25T10:24:47;3.08;;;2.25;;
71759;SDS011;59919;48.112;16.280;2024-03-25T10:27:22;7.87;;;2.30;;
71759;SDS011;59919;48.112;16.280;2024-03-25T10:29:54;3.38;;;2.10;;
71759;SDS011;59919;48.112;16.280;2024-03-25T10:32:28;2.38;;;2.17;;
71759;SDS011;59919;48.112;16.280;2024-03-25T10:34:59;3.72;;;2.10;;
71759;SDS011;59919;48.112;16.280;2024-03-25T10:37:31;4.85;;;2.45;;
71759;SDS011;59919;48.112;16.280;2024-03-25T10:40:05;2.40;;;1.80;;
71759;SDS011;59919;48.112;16.280;2024-03-25T10:42:42;1.88;;;1.70;;
71759;SDS011;59919;48.112;16.280;2024-03-25T10:45:17;2.35;;;1.80;;
71759;SDS011;59919;48.112;16.280;2024-03-25T10:47:48;3.53;;;1.80;;
71759;SDS011;59919;48.112;16.280;2024-03-25T10:50:19;2.83;;;1.65;;
71759;SDS011;59919;48.112;16.280;2024-03-25T10:52:59;3.58;;;1.52;;
71759;SDS011;59919;48.112;16.280;2024-03-25T10:55:32;1.88;;;1.60;;
71759;SDS011;59919;48.112;16.280;2024-03-25T10:58:07;3.97;;;1.77;;
71759;SDS011;59919;48.112;16.280;2024-03-25T11:00:38;2.58;;;1.70;;
71759;SDS011;59919;48.112;16.280;2024-03-25T11:03:12;2.33;;;2.00;;
71759;SDS011;59919;48.112;16.280;2024-03-25T11:05:44;3.67;;;2.00;;
71759;SDS011;59919;48.112;16.280;2024-03-25T11:08:15;3.17;;;1.67;;
71759;SDS011;59919;48.112;16.280;2024-03-25T11:10:47;7.05;;;2.03;;
71759;SDS011;59919;48.112;16.280;2024-03-25T11:13:18;4.18;;;1.77;;
71759;SDS011;59919;48.112;16.280;2024-03-25T11:15:50;2.78;;;1.80;;
71759;SDS011;59919;48.112;16.280;2024-03-25T11:18:22;2.83;;;1.95;;
71759;SDS011;59919;48.112;16.280;2024-03-25T11:21:05;2.65;;;1.80;;
71759;SDS011;59919;48.112;16.280;2024-03-25T11:23:43;2.22;;;1.70;;
71759;SDS011;59919;48.112;16.280;2024-03-25T11:26:25;4.70;;;2.03;;
71759;SDS011;59919;48.112;16.280;2024-03-25T11:29:01;3.13;;;1.60;;
71759;SDS011;59919;48.112;16.280;2024-03-25T11:31:37;6.57;;;1.90;;
71759;SDS011;59919;48.112;16.280;2024-03-25T11:34:12;5.22;;;2.03;;
71759;SDS011;59919;48.112;16.280;2024-03-25T11:36:43;3.80;;;2.10;;
71759;SDS011;59919;48.112;16.280;2024-03-25T11:39:14;2.55;;;1.33;;
71759;SDS011;59919;48.112;16.280;2024-03-25T11:41:47;6.57;;;2.03;;
71759;SDS011;59919;48.112;16.280;2024-03-25T11:44:18;4.78;;;1.52;;
71759;SDS011;59919;48.112;16.280;2024-03-25T11:46:52;2.63;;;1.58;;
71759;SDS011;59919;48.112;16.280;2024-03-25T11:49:25;3.95;;;1.50;;
71759;SDS011;59919;48.112;16.280;2024-03-25T11:52:00;4.45;;;1.17;;
71759;SDS011;59919;48.112;16.280;2024-03-25T11:54:36;3.65;;;1.25;;
71759;SDS011;59919;48.112;16.280;2024-03-25T11:57:09;2.55;;;1.20;;
71759;SDS011;59919;48.112;16.280;2024-03-25T11:59:41;1.90;;;1.17;;
71759;SDS011;59919;48.112;16.280;2024-03-25T12:02:12;2.75;;;1.33;;
71759;SDS011;59919;48.112;16.280;2024-03-25T12:04:47;2.25;;;1.40;;
71759;SDS011;59919;48.112;16.280;2024-03-25T12:07:18;2.30;;;1.30;;
71759;SDS011;59919;48.112;16.280;2024-03-25T12:09:51;2.35;;;1.27;;
71759;SDS011;59919;48.112;16.280;2024-03-25T12:12:40;1.25;;;1.15;;
71759;SDS011;59919;48.112;16.280;2024-03-25T12:15:14;3.20;;;1.40;;
71759;SDS011;59919;48.112;16.280;2024-03-25T12:17:48;5.00;;;1.60;;
71759;SDS011;59919;48.112;16.280;2024-03-25T12:20:24;1.67;;;1.05;;
71759;SDS011;59919;48.112;16.280;2024-03-25T12:22:55;3.10;;;1.27;;
71759;SDS011;59919;48.112;16.280;2024-03-25T12:25:26;1.38;;;1.10;;
71759;SDS011;59919;48.112;16.280;2024-03-25T12:28:00;2.45;;;1.33;;
71759;SDS011;59919;48.112;16.280;2024-03-25T12:30:32;3.58;;;1.20;;
71759;SDS011;59919;48.112;16.280;2024-03-25T12:33:06;4.72;;;1.25;;
71759;SDS011;59919;48.112;16.280;2024-03-25T12:35:37;1.92;;;1.20;;
71759;SDS011;59919;48.112;16.280;2024-03-25T12:38:08;2.67;;;1.30;;
71759;SDS011;59919;48.112;16.280;2024-03-25T12:40:39;1.45;;;1.10;;
71759;SDS011;59919;48.112;16.280;2024-03-25T12:43:13;4.30;;;1.15;;
71759;SDS011;59919;48.112;16.280;2024-03-25T12:45:50;2.42;;;1.20;;
71759;SDS011;59919;48.112;16.280;2024-03-25T12:48:23;2.22;;;1.10;;
71759;SDS011;59919;48.112;16.280;2024-03-25T12:50:55;2.25;;;1.20;;
71759;SDS011;59919;48.112;16.280;2024-03-25T12:53:26;2.20;;;1.40;;
71759;SDS011;59919;48.112;16.280;2024-03-25T12:56:00;1.83;;;1.08;;
71759;SDS011;59919;48.112;16.280;2024-03-25T12:58:36;4.38;;;1.10;;
71759;SDS011;59919;48.112;16.280;2024-03-25T13:01:07;4.15;;;1.42;;
71759;SDS011;59919;48.112;16.280;2024-03-25T13:03:44;1.83;;;1.05;;
71759;SDS011;59919;48.112;16.280;2024-03-25T13:06:18;1.67;;;1.20;;
71759;SDS011;59919;48.112;16.280;2024-03-25T13:08:49;1.98;;;0.70;;
71759;SDS011;59919;48.112;16.280;2024-03-25T13:11:23;2.67;;;1.20;;
71759;SDS011;59919;48.112;16.280;2024-03-25T13:13:58;1.92;;;1.20;;
71759;SDS011;59919;48.112;16.280;2024-03-25T13:16:31;2.50;;;1.10;;
71759;SDS011;59919;48.112;16.280;2024-03-25T13:19:05;1.15;;;1.00;;
71759;SDS011;59919;48.112;16.280;2024-03-25T13:21:37;3.80;;;1.30;;
71759;SDS011;59919;48.112;16.280;2024-03-25T13:24:08;1.80;;;0.90;;
71759;SDS011;59919;48.112;16.280;2024-03-25T13:26:55;1.55;;;0.90;;
71759;SDS011;59919;48.112;16.280;2024-03-25T13:29:28;3.10;;;0.82;;
71759;SDS011;59919;48.112;16.280;2024-03-25T13:32:03;1.67;;;0.98;;
71759;SDS011;59919;48.112;16.280;2024-03-25T13:34:34;2.47;;;1.00;;
71759;SDS011;59919;48.112;16.280;2024-03-25T13:37:05;1.70;;;0.80;;
71759;SDS011;59919;48.112;16.280;2024-03-25T13:39:39;3.08;;;1.00;;
71759;SDS011;59919;48.112;16.280;2024-03-25T13:42:16;1.63;;;0.70;;
71759;SDS011;59919;48.112;16.280;2024-03-25T13:44:47;2.00;;;1.17;;
71759;SDS011;59919;48.112;16.280;2024-03-25T13:47:18;1.48;;;0.90;;
71759;SDS011;59919;48.112;16.280;2024-03-25T13:50:13;5.78;;;0.90;;
71759;SDS011;59919;48.112;16.280;2024-03-25T13:52:46;2.38;;;0.85;;
71759;SDS011;59919;48.112;16.280;2024-03-25T13:55:17;1.80;;;1.00;;
71759;SDS011;59919;48.112;16.280;2024-03-25T13:57:51;1.13;;;0.80;;
71759;SDS011;59919;48.112;16.280;2024-03-25T14:00:22;1.35;;;0.77;;
71759;SDS011;59919;48.112;16.280;2024-03-25T14:02:54;0.93;;;0.77;;
71759;SDS011;59919;48.112;16.280;2024-03-25T14:05:25;2.10;;;0.90;;
71759;SDS011;59919;48.112;16.280;2024-03-25T14:07:59;1.77;;;0.90;;
71759;SDS011;59919;48.112;16.280;2024-03-25T14:10:30;2.47;;;0.90;;
71759;SDS011;59919;48.112;16.280;2024-03-25T14:13:01;2.97;;;0.80;;
71759;SDS011;59919;48.112;16.280;2024-03-25T14:15:33;1.45;;;0.95;;
71759;SDS011;59919;48.112;16.280;2024-03-25T14:18:07;1.02;;;0.73;;
71759;SDS011;59919;48.112;16.280;2024-03-25T14:20:41;1.50;;;0.90;;
71759;SDS011;59919;48.112;16.280;2024-03-25T14:23:25;1.33;;;0.65;;
71759;SDS011;59919;48.112;16.280;2024-03-25T14:26:06;1.83;;;0.90;;
71759;SDS011;59919;48.112;16.280;2024-03-25T14:28:37;3.03;;;0.85;;
71759;SDS011;59919;48.112;16.280;2024-03-25T14:31:09;1.55;;;0.63;;
71759;SDS011;59919;48.112;16.280;2024-03-25T14:33:40;1.73;;;1.20;;
71759;SDS011;59919;48.112;16.280;2024-03-25T14:36:14;2.20;;;0.88;;
71759;SDS011;59919;48.112;16.280;2024-03-25T14:38:49;1.73;;;0.90;;
71759;SDS011;59919;48.112;16.280;2024-03-25T14:41:21;4.43;;;1.00;;
71759;SDS011;59919;48.112;16.280;2024-03-25T14:43:52;2.45;;;1.00;;
71759;SDS011;59919;48.112;16.280;2024-03-25T14:46:41;1.60;;;0.80;;
71759;SDS011;59919;48.112;16.280;2024-03-25T14:49:13;2.72;;;0.90;;
71759;SDS011;59919;48.112;16.280;2024-03-25T14:51:46;1.45;;;0.70;;
71759;SDS011;59919;48.112;16.280;2024-03-25T14:54:18;1.27;;;0.68;;
71759;SDS011;59919;48.112;16.280;2024-03-25T14:56:49;1.80;;;0.90;;
71759;SDS011;59919;48.112;16.280;2024-03-25T14:59:20;2.75;;;0.70;;
71759;SDS011;59919;48.112;16.280;2024-03-25T15:01:54;1.35;;;0.65;;
71759;SDS011;59919;48.112;16.280;2024-03-25T15:04:27;1.77;;;0.80;;
71759;SDS011;59919;48.112;16.280;2024-03-25T15:06:58;0.88;;;0.70;;